Time;durP1;ratioP1;P1;durP2;ratioP2;P2;SDS_P1;SDS_P2;PMS_P1;PMS_P2;Temp;Humidity;BMP_temperature;BMP_pressure;BME280_temperature;BME280_humidity;BME280_pressure;Samples;Min_cycle;Max_cycle;Signal;HPM_P1;HPM_P2
2023/01/02 00:02:18;;;;;;;9.50;5.57;;;11.00;99.90;;;;;;5035568;28;20037;-72
2023/01/02 00:04:44;;;;;;;10.35;5.25;;;10.90;99.90;;;;;;5040409;28;20037;-72
2023/01/02 00:07:09;;;;;;;7.72;4.38;;;10.90;99.90;;;;;;5053761;28;20118;-72
2023/01/02 00:09:35;;;;;;;7.95;3.92;;;10.90;99.90;;;;;;5052839;28;20055;-72
2023/01/02 00:12:00;;;;;;;7.10;4.07;;;10.90;99.90;;;;;;5025943;28;20095;-72
2023/01/02 00:14:26;;;;;;;8.23;3.63;;;10.90;99.90;;;;;;5017315;28;20086;-73
2023/01/02 00:16:52;;;;;;;8.20;3.58;;;10.90;99.90;;;;;;5017177;28;20037;-73
2023/01/02 00:19:17;;;;;;;6.63;3.30;;;10.90;99.90;;;;;;5051768;28;20485;-73
2023/01/02 00:21:43;;;;;;;7.20;3.97;;;10.90;99.90;;;;;;5051735;28;20125;-73
2023/01/02 00:24:08;;;;;;;7.07;3.70;;;10.90;99.90;;;;;;5051236;28;20048;-73
2023/01/02 00:26:34;;;;;;;7.53;3.78;;;10.90;99.90;;;;;;5052045;28;20041;-73
2023/01/02 00:29:00;;;;;;;7.28;3.80;;;10.90;99.90;;;;;;5052371;28;20043;-73
2023/01/02 00:31:26;;;;;;;8.98;3.88;;;11.00;99.90;;;;;;5036784;28;20090;-73
2023/01/02 00:33:52;;;;;;;7.85;3.90;;;11.00;99.90;;;;;;5035775;28;20041;-74
2023/01/02 00:36:17;;;;;;;10.00;4.60;;;11.00;99.90;;;;;;5069758;28;20131;-73
2023/01/02 00:38:43;;;;;;;8.88;4.28;;;11.00;99.90;;;;;;5055236;28;20477;-73
2023/01/02 00:41:08;;;;;;;8.65;4.32;;;11.00;99.90;;;;;;5035913;28;20037;-73
2023/01/02 00:43:35;;;;;;;8.35;4.32;;;11.00;99.90;;;;;;5036545;28;20412;-74
2023/01/02 00:46:00;;;;;;;9.00;5.00;;;11.00;99.90;;;;;;5053206;28;20048;-74
2023/01/02 00:48:26;;;;;;;10.05;4.78;;;11.00;99.90;;;;;;5035521;28;20132;-74
2023/01/02 00:50:51;;;;;;;11.60;5.13;;;11.00;99.90;;;;;;5034868;28;20043;-73
2023/01/02 00:53:17;;;;;;;9.13;5.53;;;11.10;99.90;;;;;;5017731;28;20038;-73
2023/01/02 00:55:44;;;;;;;11.80;6.60;;;11.00;99.90;;;;;;5035036;28;20557;-73
2023/01/02 00:58:09;;;;;;;10.85;7.38;;;11.10;99.90;;;;;;5036259;28;20037;-73
2023/01/02 01:00:35;;;;;;;11.40;6.68;;;11.10;99.90;;;;;;5036298;28;20125;-73
2023/01/02 01:03:00;;;;;;;14.70;8.02;;;11.10;99.90;;;;;;5050653;28;20049;-73
2023/01/02 01:05:27;;;;;;;11.65;7.60;;;11.10;99.90;;;;;;5052298;28;20041;-73
2023/01/02 01:07:54;;;;;;;15.00;7.88;;;11.20;99.90;;;;;;5051643;28;20094;-73
2023/01/02 01:10:21;;;;;;;12.38;8.55;;;11.20;99.90;;;;;;5035997;28;20040;-73
2023/01/02 01:12:46;;;;;;;13.70;8.60;;;11.20;99.90;;;;;;5035461;28;20071;-73
2023/01/02 01:15:12;;;;;;;14.35;8.80;;;11.10;99.90;;;;;;5052683;28;20485;-73
2023/01/02 01:17:38;;;;;;;13.57;9.40;;;11.10;99.90;;;;;;5052340;28;20041;-73
2023/01/02 01:20:04;;;;;;;13.63;8.35;;;11.20;99.90;;;;;;5035690;28;20497;-73
2023/01/02 01:22:30;;;;;;;12.48;9.60;;;11.20;99.90;;;;;;5051316;28;20047;-73
2023/01/02 01:24:55;;;;;;;14.07;9.27;;;11.30;99.90;;;;;;5052380;28;20040;-73
2023/01/02 01:27:21;;;;;;;15.65;10.25;;;11.30;99.90;;;;;;5034600;28;20049;-73
2023/01/02 01:29:46;;;;;;;13.93;9.80;;;11.30;99.90;;;;;;5035346;28;20045;-73
2023/01/02 01:32:12;;;;;;;14.82;10.05;;;11.30;99.90;;;;;;5052404;28;20080;-73
2023/01/02 01:34:37;;;;;;;15.85;11.02;;;11.30;99.90;;;;;;5051169;28;20551;-72
2023/01/02 01:37:03;;;;;;;15.05;9.43;;;11.30;99.90;;;;;;5035463;28;20444;-73
2023/01/02 01:39:29;;;;;;;13.43;9.32;;;11.40;99.90;;;;;;5035580;28;20033;-73
2023/01/02 01:41:54;;;;;;;12.98;8.60;;;11.50;99.90;;;;;;5035487;28;20041;-73
2023/01/02 01:44:46;;;;;;;15.50;9.25;;;11.50;99.90;;;;;;5034773;28;20083;-73
2023/01/02 01:47:24;;;;;;;14.35;8.48;;;11.50;99.90;;;;;;5051873;28;20075;-73
2023/01/02 01:50:02;;;;;;;15.02;8.90;;;11.60;99.90;;;;;;5049750;28;20074;-73
2023/01/02 01:52:30;;;;;;;15.05;9.13;;;11.50;99.90;;;;;;5048192;28;20059;-73
2023/01/02 01:55:17;;;;;;;12.70;7.15;;;11.50;99.90;;;;;;5048960;28;20099;-72
2023/01/02 01:57:48;;;;;;;13.07;6.72;;;11.60;99.90;;;;;;5031971;28;20041;-73
2023/01/02 02:00:14;;;;;;;11.00;6.43;;;11.60;99.90;;;;;;5046575;28;20033;-72
2023/01/02 02:02:43;;;;;;;12.23;7.45;;;11.70;99.90;;;;;;5035078;28;20564;-73
2023/01/02 02:05:13;;;;;;;13.10;7.32;;;11.70;99.90;;;;;;5052079;28;20461;-73
2023/01/02 02:07:48;;;;;;;12.13;6.60;;;11.60;99.90;;;;;;5050972;28;20045;-73
2023/01/02 02:10:13;;;;;;;15.68;7.43;;;11.70;99.90;;;;;;5050823;28;20043;-73
2023/01/02 02:12:39;;;;;;;12.57;7.47;;;11.60;99.90;;;;;;5035109;28;20045;-73
2023/01/02 02:15:08;;;;;;;13.85;7.72;;;11.60;99.90;;;;;;5034355;28;20111;-73
2023/01/02 02:17:54;;;;;;;12.80;7.05;;;11.60;99.90;;;;;;5034141;28;20389;-73
2023/01/02 02:20:32;;;;;;;14.30;6.85;;;11.60;99.90;;;;;;5050913;28;20041;-73
2023/01/02 02:23:27;;;;;;;11.75;7.97;;;11.60;99.90;;;;;;5035168;28;20124;-73
2023/01/02 02:26:10;;;;;;;11.95;7.05;;;11.60;99.90;;;;;;5051968;28;20041;-73
2023/01/02 02:29:08;;;;;;;10.07;6.32;;;11.60;99.90;;;;;;5033378;28;20390;-73
2023/01/02 02:31:49;;;;;;;11.00;6.80;;;11.60;99.90;;;;;;5035085;28;20167;-73
2023/01/02 02:34:28;;;;;;;11.30;6.45;;;11.60;99.90;;;;;;5034912;28;20049;-73
2023/01/02 02:37:00;;;;;;;9.77;5.90;;;11.60;99.90;;;;;;5046777;28;20520;-73
2023/01/02 02:39:43;;;;;;;11.88;6.35;;;11.70;99.90;;;;;;5032455;28;20033;-73
2023/01/02 02:42:19;;;;;;;13.57;6.20;;;11.70;99.90;;;;;;5050721;28;20045;-73
2023/01/02 02:45:08;;;;;;;12.70;6.75;;;11.70;99.90;;;;;;5051787;28;20374;-73
2023/01/02 02:47:54;;;;;;;11.68;6.32;;;11.70;99.90;;;;;;5032503;28;20112;-73
2023/01/02 02:50:27;;;;;;;9.60;6.25;;;11.70;99.90;;;;;;5016869;28;20095;-73
2023/01/02 02:53:02;;;;;;;13.10;6.95;;;11.80;99.90;;;;;;5034878;28;20037;-73
2023/01/02 02:55:36;;;;;;;15.63;6.60;;;11.70;99.90;;;;;;5026302;28;20033;-73
2023/01/02 02:58:03;;;;;;;12.02;6.32;;;11.70;99.90;;;;;;5045363;28;20508;-73
2023/01/02 03:00:28;;;;;;;9.95;6.13;;;11.80;99.90;;;;;;5053545;28;20029;-73
2023/01/02 03:02:54;;;;;;;11.82;6.35;;;11.80;99.90;;;;;;5050146;28;20107;-72
2023/01/02 03:05:32;;;;;;;10.63;6.22;;;11.70;99.90;;;;;;5053777;28;20041;-72
2023/01/02 03:08:08;;;;;;;10.80;6.13;;;11.80;99.90;;;;;;5040913;28;20489;-73
2023/01/02 03:10:54;;;;;;;12.32;6.68;;;11.80;99.90;;;;;;5054116;28;20036;-73
2023/01/02 03:13:59;;;;;;;12.77;7.00;;;11.80;99.90;;;;;;5037076;28;20064;-73
2023/01/02 03:16:32;;;;;;;12.77;7.00;;;11.80;99.90;;;;;;5065085;28;20033;-73
2023/01/02 03:19:09;;;;;;;15.35;7.35;;;11.80;99.90;;;;;;5062827;28;20116;-72
2023/01/02 03:21:46;;;;;;;14.85;6.80;;;11.80;99.90;;;;;;5037966;28;20142;-73
2023/01/02 03:24:17;;;;;;;13.65;6.75;;;11.80;99.90;;;;;;5052209;28;20049;-73
2023/01/02 03:26:47;;;;;;;11.20;6.38;;;11.70;99.90;;;;;;5048637;28;20087;-73
2023/01/02 03:29:20;;;;;;;13.70;6.70;;;11.70;99.90;;;;;;5058093;28;20047;-73
2023/01/02 03:31:53;;;;;;;15.23;7.10;;;11.80;99.90;;;;;;5018395;28;20064;-73
2023/01/02 03:34:26;;;;;;;;;;;11.80;99.90;;;;;;5053643;28;20064;-73
2023/01/02 03:36:59;;;;;;;12.73;6.43;;;11.80;99.90;;;;;;5048664;28;19917;-73
2023/01/02 03:39:31;;;;;;;12.77;6.60;;;11.80;99.90;;;;;;5058640;28;20041;-73
2023/01/02 03:42:03;;;;;;;11.00;5.97;;;11.80;99.90;;;;;;5034375;28;20037;-72
2023/01/02 03:44:46;;;;;;;13.35;6.10;;;11.90;99.90;;;;;;5050951;28;20029;-73
2023/01/02 03:47:29;;;;;;;11.98;5.97;;;11.90;99.90;;;;;;5037045;28;20396;-73
2023/01/02 03:50:01;;;;;;;14.65;6.75;;;11.90;99.90;;;;;;5048517;28;20129;-73
2023/01/02 03:52:27;;;;;;;11.57;5.88;;;11.90;99.90;;;;;;5034332;28;20509;-73
2023/01/02 03:54:55;;;;;;;16.45;6.40;;;11.90;99.90;;;;;;5044326;28;20033;-73
2023/01/02 03:57:33;;;;;;;10.85;4.70;;;11.90;99.90;;;;;;5060758;28;20033;-73
2023/01/02 04:00:09;;;;;;;15.35;6.00;;;12.00;99.90;;;;;;5048449;28;20402;-73
2023/01/02 04:03:00;;;;;;;11.93;5.78;;;12.00;99.90;;;;;;5040237;28;20080;-73
2023/01/02 04:05:36;;;;;;;8.98;4.35;;;11.90;99.90;;;;;;5035676;28;20048;-73
2023/01/02 04:08:20;;;;;;;11.25;5.72;;;11.90;99.90;;;;;;5034153;28;20132;-73
2023/01/02 04:10:48;;;;;;;11.25;5.82;;;11.90;99.90;;;;;;5040203;28;20045;-73
2023/01/02 04:13:24;;;;;;;10.80;5.80;;;11.90;99.90;;;;;;5037002;28;20047;-74
2023/01/02 04:15:51;;;;;;;10.48;5.28;;;11.90;99.90;;;;;;5050945;28;20029;-73
2023/01/02 04:18:25;;;;;;;9.32;5.10;;;11.90;99.90;;;;;;5069493;28;20048;-73
2023/01/02 04:20:55;;;;;;;12.07;6.07;;;11.90;99.90;;;;;;5035023;28;20075;-73
2023/01/02 04:23:31;;;;;;;12.13;6.18;;;12.00;99.90;;;;;;5035958;28;20033;-73
2023/01/02 04:26:07;;;;;;;11.18;5.75;;;11.90;99.90;;;;;;5037911;28;20053;-73
2023/01/02 04:28:34;;;;;;;13.55;6.05;;;11.90;99.90;;;;;;5044152;28;20401;-73
2023/01/02 04:31:05;;;;;;;14.18;5.93;;;11.90;99.90;;;;;;5040758;28;20436;-73
2023/01/02 04:33:37;;;;;;;11.57;6.10;;;11.90;99.90;;;;;;5053321;28;20045;-73
2023/01/02 04:36:07;;;;;;;;;;;11.90;99.90;;;;;;5064068;28;20100;-73
2023/01/02 04:38:32;;;;;;;12.20;6.00;;;11.90;99.90;;;;;;5042813;28;19917;-73
2023/01/02 04:40:58;;;;;;;12.35;6.20;;;11.90;99.90;;;;;;5050679;28;20044;-73
2023/01/02 04:43:24;;;;;;;12.05;6.35;;;11.90;99.90;;;;;;5053141;28;20040;-73
2023/01/02 04:45:50;;;;;;;11.80;6.35;;;11.90;99.90;;;;;;5033859;28;20084;-73
2023/01/02 04:48:16;;;;;;;12.52;6.57;;;11.90;99.90;;;;;;5068574;28;20040;-73
2023/01/02 04:50:42;;;;;;;12.93;6.28;;;11.90;99.90;;;;;;5033797;28;20045;-73
2023/01/02 04:53:09;;;;;;;14.60;6.28;;;12.00;99.90;;;;;;5035324;28;20045;-73
2023/01/02 04:55:35;;;;;;;13.63;7.28;;;12.00;99.90;;;;;;5045000;28;20064;-73
2023/01/02 04:58:01;;;;;;;13.05;6.82;;;12.00;99.90;;;;;;5034047;28;20029;-73
2023/01/02 05:00:27;;;;;;;11.38;6.25;;;11.90;99.90;;;;;;5045015;28;20044;-73
2023/01/02 05:02:52;;;;;;;15.02;5.88;;;12.00;99.90;;;;;;5037019;28;20060;-73
2023/01/02 05:05:18;;;;;;;11.68;6.53;;;12.00;99.90;;;;;;5047147;28;20045;-73
2023/01/02 05:07:43;;;;;;;14.27;7.00;;;12.00;99.90;;;;;;5035403;28;20043;-73
2023/01/02 05:10:09;;;;;;;12.18;6.18;;;12.00;99.90;;;;;;5032349;28;20045;-73
2023/01/02 05:12:36;;;;;;;12.38;5.93;;;12.00;99.90;;;;;;5050503;28;20421;-73
2023/01/02 05:15:03;;;;;;;13.18;6.00;;;12.00;99.90;;;;;;5033066;28;20037;-73
2023/01/02 05:17:32;;;;;;;11.82;5.68;;;12.10;99.90;;;;;;5035740;28;20043;-73
2023/01/02 05:19:58;;;;;;;11.13;5.18;;;12.10;99.90;;;;;;5048379;28;20041;-73
2023/01/02 05:25:08;;;;;;;13.52;5.60;;;12.10;99.90;;;;;;5042847;28;20033;-73
2023/01/02 05:27:34;;;;;;;10.40;5.63;;;12.10;99.90;;;;;;5037946;28;20029;-73
2023/01/02 05:29:59;;;;;;;13.75;5.80;;;12.20;99.90;;;;;;5045994;28;20090;-73
2023/01/02 05:32:26;;;;;;;9.63;5.15;;;12.20;99.90;;;;;;5049270;28;20041;-73
2023/01/02 05:34:52;;;;;;;10.93;5.90;;;12.20;99.90;;;;;;5034833;28;20037;-73
2023/01/02 05:37:17;;;;;;;11.65;5.60;;;12.10;99.90;;;;;;5033702;28;20408;-72
2023/01/02 05:39:43;;;;;;;13.43;5.45;;;12.20;99.90;;;;;;5050726;28;20037;-73
2023/01/02 05:42:08;;;;;;;11.32;5.22;;;12.20;99.90;;;;;;5050484;28;20087;-73
2023/01/02 05:44:34;;;;;;;10.60;5.53;;;12.30;99.90;;;;;;5034797;28;20041;-73
2023/01/02 05:46:59;;;;;;;11.70;5.47;;;12.30;99.90;;;;;;5050047;28;20489;-73
2023/01/02 05:49:25;;;;;;;11.80;6.95;;;12.20;99.90;;;;;;5046091;28;20463;-73
2023/01/02 05:51:50;;;;;;;11.88;5.72;;;12.30;99.90;;;;;;5038707;28;20040;-73
2023/01/02 05:54:16;;;;;;;11.48;5.20;;;12.20;99.90;;;;;;5032644;28;20037;-73
2023/01/02 05:56:41;;;;;;;10.93;5.20;;;12.30;99.90;;;;;;5058669;28;20036;-72
2023/01/02 05:59:07;;;;;;;9.50;4.60;;;12.30;99.90;;;;;;5033657;28;20408;-73
2023/01/02 06:01:33;;;;;;;9.85;5.80;;;12.30;99.90;;;;;;5049401;28;20086;-72
2023/01/02 06:04:00;;;;;;;12.43;5.10;;;12.30;99.90;;;;;;5031823;28;20516;-73
2023/01/02 06:06:31;;;;;;;12.07;5.68;;;12.30;99.90;;;;;;5044353;28;20042;-73
2023/01/02 06:09:01;;;;;;;11.37;5.70;;;12.30;99.90;;;;;;5032578;28;20119;-73
2023/01/02 06:11:27;;;;;;;9.35;4.95;;;12.30;99.90;;;;;;5031423;28;20198;-73
2023/01/02 06:13:53;;;;;;;10.57;5.05;;;12.20;99.90;;;;;;5030690;28;20159;-73
2023/01/02 06:16:19;;;;;;;12.52;5.43;;;12.30;99.90;;;;;;5049591;28;20061;-73
2023/01/02 06:18:45;;;;;;;13.05;6.18;;;12.30;99.90;;;;;;5032039;28;20474;-73
2023/01/02 06:21:12;;;;;;;11.98;5.10;;;12.30;99.90;;;;;;5060485;28;20468;-73
2023/01/02 06:23:38;;;;;;;13.38;6.35;;;12.30;99.90;;;;;;5034308;28;20140;-73
2023/01/02 06:26:09;;;;;;;11.35;5.50;;;12.20;99.90;;;;;;5047486;28;20464;-73
2023/01/02 06:28:35;;;;;;;12.70;5.72;;;12.20;99.90;;;;;;5053133;28;20037;-73
2023/01/02 06:31:12;;;;;;;9.95;5.10;;;12.30;99.90;;;;;;5047567;28;20052;-74
2023/01/02 06:33:38;;;;;;;8.57;4.88;;;12.30;99.90;;;;;;5055245;28;20037;-73
2023/01/02 06:36:06;;;;;;;7.80;5.05;;;12.20;99.90;;;;;;5035576;28;20044;-73
2023/01/02 06:38:32;;;;;;;8.82;4.50;;;12.20;99.90;;;;;;5037379;28;20059;-73
2023/01/02 06:41:00;;;;;;;9.30;3.97;;;12.30;99.90;;;;;;5052955;28;20045;-74
2023/01/02 06:43:27;;;;;;;9.25;4.28;;;12.30;99.90;;;;;;5026024;28;20045;-74
2023/01/02 06:45:52;;;;;;;5.65;2.95;;;12.30;99.90;;;;;;5037099;28;20087;-74
2023/01/02 06:48:18;;;;;;;7.60;4.30;;;12.30;99.90;;;;;;5024318;28;20036;-74
2023/01/02 06:50:44;;;;;;;9.15;4.20;;;12.40;99.90;;;;;;5053351;28;20489;-74
2023/01/02 06:53:11;;;;;;;6.65;3.35;;;12.30;99.90;;;;;;5042121;28;20045;-74
2023/01/02 06:55:37;;;;;;;8.68;4.53;;;12.40;99.90;;;;;;5051149;28;20056;-73
2023/01/02 06:58:03;;;;;;;8.85;4.60;;;12.30;99.90;;;;;;5040619;28;20558;-73
2023/01/02 07:00:30;;;;;;;9.90;3.80;;;12.10;99.90;;;;;;5030259;28;20056;-73
2023/01/02 07:02:55;;;;;;;5.03;2.53;;;12.00;99.90;;;;;;5052211;28;20049;-73
2023/01/02 07:05:21;;;;;;;4.57;2.85;;;12.00;99.90;;;;;;5036608;28;20428;-73
2023/01/02 07:07:46;;;;;;;5.13;2.65;;;12.00;99.90;;;;;;5051850;28;20079;-73
2023/01/02 07:10:12;;;;;;;4.35;2.45;;;11.90;99.90;;;;;;5046312;28;20036;-74
2023/01/02 07:12:37;;;;;;;5.15;2.75;;;11.80;99.90;;;;;;5034484;28;20045;-74
2023/01/02 07:15:05;;;;;;;5.47;2.90;;;11.80;99.90;;;;;;5050408;28;20474;-74
2023/01/02 07:17:31;;;;;;;5.93;2.92;;;11.70;99.90;;;;;;5053739;28;20045;-74
2023/01/02 07:19:57;;;;;;;5.38;3.00;;;11.70;99.90;;;;;;5049117;28;20076;-73
2023/01/02 07:22:23;;;;;;;5.15;2.88;;;11.60;99.90;;;;;;5041826;28;20025;-74
2023/01/02 07:24:49;;;;;;;5.40;2.88;;;11.50;99.90;;;;;;5054690;28;20048;-74
2023/01/02 07:27:14;;;;;;;4.32;2.13;;;11.50;99.90;;;;;;5052123;28;20048;-74
2023/01/02 07:29:40;;;;;;;3.33;2.10;;;11.50;99.90;;;;;;5050649;28;20101;-74
2023/01/02 07:32:05;;;;;;;3.78;1.98;;;11.30;99.90;;;;;;5033002;28;20033;-74
2023/01/02 07:34:31;;;;;;;3.13;2.03;;;11.40;99.90;;;;;;5036568;28;20037;-73
2023/01/02 07:36:56;;;;;;;4.90;2.25;;;11.30;99.90;;;;;;5032567;28;20075;-74
2023/01/02 07:39:23;;;;;;;4.07;2.40;;;11.20;99.90;;;;;;5053516;28;20045;-73
2023/01/02 07:41:48;;;;;;;4.68;2.60;;;11.10;99.90;;;;;;5039656;28;20044;-74
2023/01/02 07:44:14;;;;;;;4.43;2.30;;;11.00;99.90;;;;;;5034141;28;20037;-74
2023/01/02 07:46:40;;;;;;;5.25;3.00;;;11.00;99.90;;;;;;5036217;28;20037;-74
2023/01/02 07:49:06;;;;;;;5.07;2.75;;;10.90;99.90;;;;;;5050827;28;20035;-73
2023/01/02 07:51:32;;;;;;;5.95;2.97;;;10.90;99.90;;;;;;5035735;28;20068;-74
2023/01/02 07:53:57;;;;;;;5.38;2.92;;;10.80;99.90;;;;;;5031497;28;20033;-74
2023/01/02 07:56:26;;;;;;;5.68;3.05;;;10.90;99.90;;;;;;5041082;28;20116;-74
2023/01/02 07:58:52;;;;;;;7.47;3.20;;;10.70;99.90;;;;;;5034340;28;20505;-74
2023/01/02 08:01:17;;;;;;;7.07;3.55;;;10.70;99.90;;;;;;5036564;28;20063;-74
2023/01/02 08:03:43;;;;;;;5.57;2.88;;;10.60;99.90;;;;;;5027908;28;20059;-75
2023/01/02 08:06:11;;;;;;;5.78;2.60;;;10.60;99.90;;;;;;5066407;28;20045;-74
2023/01/02 08:08:37;;;;;;;5.32;2.75;;;10.60;99.90;;;;;;5052633;28;20041;-74
2023/01/02 08:11:15;;;;;;;5.28;2.55;;;10.50;99.90;;;;;;5036704;28;20037;-74
2023/01/02 08:13:41;;;;;;;5.32;2.40;;;10.50;99.90;;;;;;5036433;28;20045;-74
2023/01/02 08:16:18;;;;;;;4.75;2.22;;;10.40;99.90;;;;;;5044164;28;20090;-74
2023/01/02 08:18:45;;;;;;;6.18;1.95;;;10.40;99.90;;;;;;5032078;28;20489;-73
2023/01/02 08:21:12;;;;;;;5.88;1.80;;;10.20;99.90;;;;;;5034042;28;20366;-73
2023/01/02 08:23:38;;;;;;;4.55;1.58;;;10.20;99.90;;;;;;5036494;28;20075;-74
2023/01/02 08:26:06;;;;;;;3.00;1.38;;;10.10;99.90;;;;;;5032587;28;20068;-74
2023/01/02 08:28:33;;;;;;;4.05;1.20;;;10.10;99.90;;;;;;5050942;28;20094;-73
2023/01/02 08:30:59;;;;;;;3.78;1.20;;;10.00;99.90;;;;;;5061801;28;20036;-73
2023/01/02 08:33:25;;;;;;;4.20;1.10;;;10.00;99.90;;;;;;5068529;28;20133;-73
2023/01/02 08:35:51;;;;;;;2.70;0.98;;;10.00;99.90;;;;;;5033846;28;20397;-73
2023/01/02 08:38:17;;;;;;;3.50;0.80;;;10.00;99.90;;;;;;5052605;28;20051;-73
2023/01/02 08:40:42;;;;;;;2.25;0.80;;;9.90;99.90;;;;;;5035357;28;20045;-73
2023/01/02 08:43:08;;;;;;;2.95;0.80;;;9.80;99.90;;;;;;5052373;28;20040;-73
2023/01/02 08:45:34;;;;;;;2.47;0.85;;;9.80;99.90;;;;;;5034916;28;20037;-73
2023/01/02 08:48:00;;;;;;;1.88;0.73;;;9.70;99.90;;;;;;5063795;28;20128;-72
2023/01/02 08:50:25;;;;;;;1.88;0.90;;;9.70;99.90;;;;;;5038859;28;20042;-75
2023/01/02 08:52:51;;;;;;;3.08;1.33;;;9.70;99.90;;;;;;5027665;28;20049;-71
2023/01/02 08:55:16;;;;;;;1.40;0.70;;;9.70;99.90;;;;;;5034788;28;20489;-72
2023/01/02 08:57:42;;;;;;;4.22;1.27;;;9.70;99.90;;;;;;5030707;28;20036;-72
2023/01/02 09:00:09;;;;;;;3.47;1.13;;;9.70;99.90;;;;;;5034682;28;20174;-72
2023/01/02 09:02:35;;;;;;;3.17;0.90;;;9.60;99.90;;;;;;5034947;28;20063;-72
2023/01/02 09:05:00;;;;;;;2.38;1.08;;;9.60;99.90;;;;;;5034922;28;20048;-72
2023/01/02 09:07:26;;;;;;;1.67;0.98;;;9.60;99.90;;;;;;5035583;28;20049;-72
2023/01/02 09:09:51;;;;;;;3.72;1.27;;;9.50;99.90;;;;;;5051150;28;20111;-72
2023/01/02 09:12:17;;;;;;;1.95;1.00;;;9.50;99.90;;;;;;5033696;28;20036;-72
2023/01/02 09:14:43;;;;;;;2.95;1.30;;;9.40;99.90;;;;;;5038497;28;20075;-72
2023/01/02 09:17:08;;;;;;;3.85;1.30;;;9.40;99.90;;;;;;5051890;28;20040;-72
2023/01/02 09:19:34;;;;;;;2.45;1.10;;;9.40;99.90;;;;;;5051171;28;20108;-72
2023/01/02 09:22:00;;;;;;;2.83;1.10;;;9.40;99.90;;;;;;5038282;28;20029;-72
2023/01/02 09:24:26;;;;;;;3.78;1.63;;;9.40;99.90;;;;;;5033393;28;20497;-72
2023/01/02 09:26:52;;;;;;;4.32;1.27;;;9.40;99.90;;;;;;5049338;28;20037;-72
2023/01/02 09:29:18;;;;;;;4.20;1.33;;;9.30;99.90;;;;;;5049639;28;20045;-72
2023/01/02 09:31:44;;;;;;;3.47;1.42;;;9.30;99.90;;;;;;5043360;28;20087;-72
2023/01/02 09:34:10;;;;;;;2.03;1.23;;;9.30;99.90;;;;;;5050782;28;20061;-72
2023/01/02 09:36:36;;;;;;;3.67;1.58;;;9.30;99.90;;;;;;5050766;28;20063;-72
2023/01/02 09:39:02;;;;;;;3.25;1.20;;;9.20;99.90;;;;;;5050985;28;20033;-72
2023/01/02 09:41:34;;;;;;;3.80;1.38;;;9.30;99.90;;;;;;5034735;28;20036;-72
2023/01/02 09:44:30;;;;;;;2.65;1.10;;;9.30;99.90;;;;;;5032387;28;20062;-72
2023/01/02 09:46:59;;;;;;;6.47;1.40;;;9.20;99.90;;;;;;5043986;28;20076;-73
2023/01/02 09:49:31;;;;;;;2.67;1.40;;;9.20;99.90;;;;;;5018111;28;20123;-73
2023/01/02 09:51:57;;;;;;;2.60;1.20;;;9.20;99.90;;;;;;5049005;28;20044;-73
2023/01/02 09:54:29;;;;;;;3.30;1.50;;;9.30;99.90;;;;;;5034263;28;20091;-72
2023/01/02 09:57:02;;;;;;;2.30;1.30;;;9.40;99.90;;;;;;5054742;28;20449;-73
2023/01/02 09:59:32;;;;;;;3.15;1.52;;;9.30;99.90;;;;;;5034648;28;20041;-73
2023/01/02 10:02:26;;;;;;;3.47;1.70;;;9.30;99.90;;;;;;5038145;28;20162;-73
2023/01/02 10:05:23;;;;;;;3.97;1.77;;;9.30;99.90;;;;;;5032415;28;20057;-73
2023/01/02 10:07:54;;;;;;;3.70;1.63;;;9.30;99.90;;;;;;5033563;28;20045;-73
2023/01/02 10:10:33;;;;;;;4.40;1.77;;;9.30;99.90;;;;;;5050864;28;20068;-73
2023/01/02 10:13:03;;;;;;;4.05;1.90;;;9.30;99.90;;;;;;5048700;28;20041;-73
2023/01/02 10:15:30;;;;;;;4.93;2.33;;;9.40;99.90;;;;;;5039992;28;20033;-73
2023/01/02 10:18:18;;;;;;;4.97;2.10;;;9.30;99.90;;;;;;5034079;28;20420;-73
2023/01/02 10:20:51;;;;;;;7.45;2.00;;;9.30;99.90;;;;;;5030804;28;20044;-73
2023/01/02 10:23:22;;;;;;;6.80;2.25;;;9.30;99.90;;;;;;5045951;28;20132;-73
2023/01/02 10:25:54;;;;;;;4.47;1.97;;;9.30;99.90;;;;;;5049144;28;20036;-73
2023/01/02 10:28:34;;;;;;;4.95;1.80;;;9.40;99.90;;;;;;5033972;28;20078;-73
2023/01/02 10:31:05;;;;;;;5.38;2.10;;;9.40;99.90;;;;;;5050174;28;20041;-73
2023/01/02 10:33:35;;;;;;;4.50;1.67;;;9.30;99.90;;;;;;5033971;28;20049;-73
2023/01/02 10:36:01;;;;;;;3.63;1.40;;;9.40;99.90;;;;;;5034480;28;20037;-73
2023/01/02 10:38:34;;;;;;;2.50;1.45;;;9.30;99.90;;;;;;5033537;28;20110;-73
2023/01/02 10:41:00;;;;;;;2.55;1.40;;;9.30;99.90;;;;;;5032949;28;20040;-73
2023/01/02 10:43:26;;;;;;;4.20;1.73;;;9.30;99.90;;;;;;5041572;28;20576;-73
2023/01/02 10:45:52;;;;;;;3.38;1.30;;;9.30;99.90;;;;;;5050734;28;20048;-73
2023/01/02 10:48:20;;;;;;;3.80;1.40;;;9.30;99.90;;;;;;5045196;28;20065;-73
2023/01/02 10:50:51;;;;;;;4.22;1.13;;;9.40;99.90;;;;;;5049290;28;20055;-73
2023/01/02 10:53:36;;;;;;;5.47;1.70;;;9.30;99.90;;;;;;5037748;28;20037;-73
2023/01/02 10:56:14;;;;;;;2.53;1.35;;;9.30;99.90;;;;;;5034648;28;20033;-73
2023/01/02 10:58:46;;;;;;;5.53;1.50;;;9.30;99.90;;;;;;5031848;28;20090;-73
2023/01/02 11:01:22;;;;;;;3.20;1.38;;;9.30;99.90;;;;;;5042138;28;20044;-73
2023/01/02 11:04:08;;;;;;;3.28;1.50;;;9.30;99.90;;;;;;5058254;28;20052;-73
2023/01/02 11:06:53;;;;;;;3.95;1.40;;;9.20;99.90;;;;;;5042518;28;20068;-73
2023/01/02 11:09:22;;;;;;;6.30;1.60;;;9.20;99.90;;;;;;5022690;28;20033;-73
2023/01/02 11:11:53;;;;;;;3.65;1.65;;;9.40;99.90;;;;;;5047424;28;20120;-73
2023/01/02 11:14:38;;;;;;;3.07;1.30;;;9.30;99.90;;;;;;5034581;28;20040;-73
2023/01/02 11:17:14;;;;;;;4.88;1.60;;;9.30;99.90;;;;;;5025920;28;20303;-73
2023/01/02 11:19:46;;;;;;;6.18;1.75;;;9.30;99.90;;;;;;5047106;28;20048;-73
2023/01/02 11:22:14;;;;;;;4.22;1.10;;;9.30;99.90;;;;;;5036949;28;20119;-73
2023/01/02 11:25:00;;;;;;;3.65;1.63;;;9.40;99.90;;;;;;5036683;28;20040;-73
2023/01/02 11:27:31;;;;;;;4.57;1.38;;;9.40;99.90;;;;;;5052303;28;20378;-73
2023/01/02 11:29:57;;;;;;;5.35;1.65;;;9.30;99.90;;;;;;5040571;28;20076;-73
2023/01/02 11:32:28;;;;;;;2.83;1.30;;;9.40;99.90;;;;;;5039762;28;20486;-73
2023/01/02 11:34:58;;;;;;;6.63;1.90;;;9.40;99.90;;;;;;5036309;28;20078;-73
2023/01/02 11:37:24;;;;;;;3.67;1.55;;;9.30;99.90;;;;;;5053696;28;20072;-73
2023/01/02 11:40:23;;;;;;;5.20;1.60;;;9.30;99.90;;;;;;5053962;28;20048;-73
2023/01/02 11:45:36;;;;;;;7.57;1.73;;;9.40;99.90;;;;;;5047828;28;20408;-73
2023/01/02 11:48:13;;;;;;;5.25;1.63;;;9.30;99.90;;;;;;5037176;28;20037;-73
2023/01/02 11:50:42;;;;;;;6.55;1.50;;;9.30;99.90;;;;;;5040424;28;20120;-73
2023/01/02 11:53:25;;;;;;;7.55;1.92;;;9.40;99.90;;;;;;5022647;28;20042;-73
2023/01/02 11:55:58;;;;;;;5.97;1.73;;;9.40;99.90;;;;;;5043942;28;20051;-72
2023/01/02 11:58:33;;;;;;;6.68;1.80;;;9.40;99.90;;;;;;5036250;28;20047;-73
2023/01/02 12:01:19;;;;;;;4.85;1.70;;;9.30;99.90;;;;;;5053125;28;20041;-73
2023/01/02 12:03:45;;;;;;;4.38;1.60;;;9.30;99.90;;;;;;5024848;28;20056;-72
2023/01/02 12:06:20;;;;;;;5.18;1.92;;;9.30;99.90;;;;;;5049060;28;20416;-73
2023/01/02 12:09:04;;;;;;;6.50;1.70;;;9.30;99.90;;;;;;5019987;28;20042;-73
2023/01/02 12:11:43;;;;;;;5.07;1.80;;;9.50;99.90;;;;;;5033861;28;20048;-73
2023/01/02 12:14:16;;;;;;;6.88;1.77;;;9.40;99.90;;;;;;5035715;28;20090;-68
2023/01/02 12:17:15;;;;;;;4.45;1.42;;;9.50;99.90;;;;;;5051017;28;20480;-73
2023/01/02 12:20:01;;;;;;;5.18;1.63;;;9.60;99.90;;;;;;5050287;28;20485;-73
2023/01/02 12:22:32;;;;;;;7.15;1.60;;;9.60;99.90;;;;;;5048060;28;20037;-73
2023/01/02 12:25:09;;;;;;;6.67;1.70;;;9.50;99.90;;;;;;5032839;28;20112;-73
2023/01/02 12:27:53;;;;;;;7.28;1.52;;;9.50;99.90;;;;;;5050534;28;20366;-73
2023/01/02 12:30:19;;;;;;;7.90;1.63;;;9.60;99.90;;;;;;5022417;28;20033;-73
2023/01/02 12:33:10;;;;;;;6.45;1.58;;;9.60;99.90;;;;;;5036460;28;20048;-73
2023/01/02 12:35:52;;;;;;;10.40;2.28;;;9.70;99.90;;;;;;5035906;28;20537;-73
2023/01/02 12:38:46;;;;;;;6.90;1.58;;;9.60;99.90;;;;;;5035554;28;20049;-72
2023/01/02 12:41:51;;;;;;;7.13;1.65;;;9.60;99.90;;;;;;5034336;28;20037;-72
2023/01/02 12:44:29;;;;;;;7.03;1.40;;;9.70;99.90;;;;;;5014134;28;20045;-73
2023/01/02 12:46:58;;;;;;;7.85;1.80;;;9.60;99.90;;;;;;5034584;28;20040;-72
2023/01/02 12:49:42;;;;;;;5.15;1.40;;;9.60;99.90;;;;;;5025119;28;20056;-73
2023/01/02 12:52:25;;;;;;;6.50;1.67;;;9.60;99.90;;;;;;5035490;28;20037;-73
2023/01/02 12:55:23;;;;;;;7.45;1.60;;;9.60;99.90;;;;;;5036106;28;20127;-73
2023/01/02 12:57:55;;;;;;;5.38;1.25;;;9.70;99.90;;;;;;5038955;28;20033;-73
2023/01/02 13:00:59;;;;;;;6.60;1.48;;;9.80;99.90;;;;;;5035577;28;20116;-73
2023/01/02 13:03:37;;;;;;;9.13;1.65;;;9.90;99.90;;;;;;5047871;28;20136;-73
2023/01/02 13:06:14;;;;;;;6.13;1.23;;;9.80;99.90;;;;;;5052762;28;20087;-73
2023/01/02 13:08:49;;;;;;;6.72;1.67;;;9.80;99.90;;;;;;5035500;28;20087;-73
2023/01/02 13:11:23;;;;;;;6.70;1.65;;;9.80;99.90;;;;;;5035615;28;20037;-73